Time;durP1;ratioP1;P1;durP2;ratioP2;P2;SDS_P1;SDS_P2;PMS_P1;PMS_P2;Temp;Humidity;BMP_temperature;BMP_pressure;BME280_temperature;BME280_humidity;BME280_pressure;Samples;Min_cycle;Max_cycle;Signal;HPM_P1;HPM_P2
2022/12/15 00:38:49;;;;;;;48.50;35.73;;;-1.50;99.90;;;;;;5014259;28;20243;-76
2022/12/15 00:41:18;;;;;;;48.73;35.73;;;-1.50;99.90;;;;;;5013969;28;20814;-77
2022/12/15 00:43:47;;;;;;;47.33;34.73;;;-1.50;99.90;;;;;;5013584;28;20467;-78
2022/12/15 00:49:01;;;;;;;52.53;36.73;;;-1.50;99.90;;;;;;5033855;28;20428;-75
2022/12/15 01:21:54;;;;;;;46.70;33.20;;;-1.70;99.90;;;;;;5013490;28;20444;-76
2022/12/15 01:24:24;;;;;;;46.73;34.23;;;-1.70;99.90;;;;;;5013860;28;20475;-76
2022/12/15 01:26:52;;;;;;;47.93;33.33;;;-1.60;99.90;;;;;;5013207;28;20213;-78
2022/12/15 01:29:20;;;;;;;43.90;32.77;;;-1.60;99.90;;;;;;5026106;28;20463;-78
2022/12/15 01:31:48;;;;;;;46.47;34.13;;;-1.70;99.90;;;;;;5031180;28;20889;-75
2022/12/15 01:34:18;;;;;;;48.10;32.93;;;-1.70;99.90;;;;;;5013544;28;20596;-76
2022/12/15 01:36:47;;;;;;;45.40;32.53;;;-1.70;99.90;;;;;;5013478;28;20444;-78
2022/12/15 01:39:15;;;;;;;46.20;33.00;;;-1.80;99.90;;;;;;5013344;28;20498;-77
2022/12/15 01:41:43;;;;;;;45.73;33.50;;;-1.80;99.90;;;;;;5013426;28;20468;-78
2022/12/15 01:44:20;;;;;;;47.03;33.50;;;-1.90;99.90;;;;;;5014336;28;20483;-76
2022/12/15 01:46:50;;;;;;;43.80;33.33;;;-1.90;99.90;;;;;;5014405;28;20887;-76
2022/12/15 01:49:23;;;;;;;46.83;34.13;;;-1.80;99.90;;;;;;5013217;28;20444;-77
2022/12/15 01:51:55;;;;;;;46.03;33.13;;;-1.80;99.90;;;;;;5013300;28;20471;-77
2022/12/15 01:54:27;;;;;;;45.23;33.57;;;-1.80;99.90;;;;;;5013009;28;20803;-78
2022/12/15 01:57:03;;;;;;;43.70;32.23;;;-1.90;99.90;;;;;;5013386;28;20444;-76
2022/12/15 01:59:35;;;;;;;43.87;32.23;;;-1.80;99.90;;;;;;5012532;28;20843;-76
2022/12/15 02:02:04;;;;;;;46.03;32.67;;;-1.80;99.90;;;;;;5013161;28;20556;-76
2022/12/15 02:04:33;;;;;;;48.53;34.27;;;-1.80;99.90;;;;;;5012585;28;20448;-78
2022/12/15 02:07:01;;;;;;;46.73;34.03;;;-1.80;99.90;;;;;;5012902;28;20531;-79
2022/12/15 02:09:30;;;;;;;47.77;34.07;;;-1.70;99.90;;;;;;5013091;28;20464;-77
2022/12/15 02:12:07;;;;;;;45.57;32.87;;;-1.80;99.90;;;;;;5012152;28;20544;-76
2022/12/15 02:15:01;;;;;;;46.90;34.10;;;-1.80;99.90;;;;;;5013059;28;20439;-77
2022/12/15 02:17:37;;;;;;;48.03;34.77;;;-1.80;99.90;;;;;;5016775;28;20467;-75
2022/12/15 02:20:36;;;;;;;48.03;34.30;;;-1.90;99.90;;;;;;5025904;28;20474;-76
2022/12/15 02:23:32;;;;;;;47.77;34.43;;;-1.80;99.90;;;;;;5012253;28;20453;-77
2022/12/15 02:26:48;;;;;;;49.23;34.83;;;-1.90;99.90;;;;;;5012697;28;20514;-79
2022/12/15 02:29:31;;;;;;;52.70;36.83;;;-1.90;99.90;;;;;;5012561;28;20881;-77
2022/12/15 02:32:07;;;;;;;51.27;36.37;;;-1.90;99.90;;;;;;5012627;28;20428;-76
2022/12/15 02:34:40;;;;;;;53.10;37.03;;;-1.90;99.90;;;;;;5012995;28;20432;-77
2022/12/15 02:37:14;;;;;;;51.10;36.60;;;-1.90;99.90;;;;;;5012996;28;20791;-77
2022/12/15 02:39:43;;;;;;;50.73;36.13;;;-1.90;99.90;;;;;;5011756;28;20583;-77
2022/12/15 02:42:11;;;;;;;52.07;36.47;;;-1.90;99.90;;;;;;5012261;28;20889;-75
2022/12/15 02:44:45;;;;;;;52.10;36.63;;;-2.00;99.90;;;;;;5012160;28;20923;-76
2022/12/15 02:47:27;;;;;;;48.80;35.83;;;-1.90;99.90;;;;;;5012508;28;20456;-78
2022/12/15 02:50:18;;;;;;;47.17;33.93;;;-2.00;99.90;;;;;;4995114;28;21007;-79
2022/12/15 02:52:59;;;;;;;49.70;35.17;;;-1.90;99.90;;;;;;5025341;28;20435;-76
2022/12/15 02:55:37;;;;;;;48.60;35.13;;;-1.90;99.90;;;;;;5014327;28;20467;-78
2022/12/15 02:58:13;;;;;;;48.10;33.63;;;-2.00;99.90;;;;;;5012173;28;20848;-76
2022/12/15 03:00:46;;;;;;;50.20;35.77;;;-2.00;99.90;;;;;;5012450;28;20815;-80
2022/12/15 03:03:20;;;;;;;49.30;35.63;;;-1.90;99.90;;;;;;5011692;28;20467;-78
2022/12/15 03:05:52;;;;;;;48.33;35.13;;;-1.90;99.90;;;;;;5012362;28;20914;-78
2022/12/15 03:08:20;;;;;;;49.80;35.97;;;-1.90;99.90;;;;;;5012264;28;20457;-77
2022/12/15 03:10:53;;;;;;;50.43;37.13;;;-1.90;99.90;;;;;;5011801;28;20457;-78
2022/12/15 03:13:21;;;;;;;52.80;36.70;;;-1.90;99.90;;;;;;5019321;28;20467;-78
2022/12/15 03:15:49;;;;;;;53.70;37.50;;;-1.90;99.90;;;;;;5032729;28;20464;-79
2022/12/15 03:18:19;;;;;;;55.57;38.43;;;-2.00;99.90;;;;;;5033220;28;20470;-78
2022/12/15 03:20:47;;;;;;;49.93;35.33;;;-2.00;99.90;;;;;;5030894;28;20447;-78
2022/12/15 03:23:15;;;;;;;49.20;36.00;;;-1.90;99.90;;;;;;5031101;28;20455;-80
2022/12/15 03:25:45;;;;;;;50.93;36.27;;;-2.00;99.90;;;;;;5031507;28;20463;-79
2022/12/15 03:28:17;;;;;;;52.43;37.13;;;-2.00;99.90;;;;;;5031637;28;20838;-79
2022/12/15 03:30:45;;;;;;;53.37;37.47;;;-2.00;99.90;;;;;;5027624;28;20962;-79
2022/12/15 03:33:19;;;;;;;45.93;35.53;;;-2.00;99.90;;;;;;5011668;28;20432;-78
2022/12/15 03:35:47;;;;;;;51.37;37.03;;;-1.90;99.90;;;;;;5011945;28;20531;-75
2022/12/15 03:38:15;;;;;;;55.47;37.60;;;-2.00;99.90;;;;;;5011797;28;20456;-77
2022/12/15 03:40:43;;;;;;;50.43;36.57;;;-2.00;99.90;;;;;;5015276;28;20492;-75
2022/12/15 03:43:12;;;;;;;53.37;37.23;;;-2.00;99.90;;;;;;5025726;28;20464;-77
2022/12/15 03:45:40;;;;;;;48.67;34.17;;;-2.00;99.90;;;;;;5027099;28;20461;-76
2022/12/15 03:48:08;;;;;;;47.33;35.13;;;-2.00;99.90;;;;;;5012134;28;20472;-77
2022/12/15 03:50:38;;;;;;;50.67;35.33;;;-2.00;99.90;;;;;;5014484;28;20535;-77
2022/12/15 03:53:06;;;;;;;47.73;34.40;;;-2.10;99.90;;;;;;5018854;28;20463;-76
2022/12/15 03:55:35;;;;;;;46.30;33.87;;;-2.10;99.90;;;;;;5028947;28;20465;-76
2022/12/15 03:58:03;;;;;;;47.47;34.10;;;-2.10;99.90;;;;;;5047719;28;20464;-77
2022/12/15 04:00:31;;;;;;;47.33;34.40;;;-2.20;99.90;;;;;;5040899;28;20483;-78
2022/12/15 04:02:59;;;;;;;52.03;35.57;;;-2.20;99.90;;;;;;5039694;28;20494;-78
2022/12/15 04:05:29;;;;;;;52.30;36.10;;;-2.30;99.90;;;;;;5034280;28;20463;-76
2022/12/15 04:08:01;;;;;;;48.97;34.67;;;-2.20;99.90;;;;;;5036695;28;20908;-79
2022/12/15 04:10:31;;;;;;;51.70;34.70;;;-2.30;99.90;;;;;;5035945;28;20552;-77
2022/12/15 04:13:03;;;;;;;49.03;35.17;;;-2.30;99.90;;;;;;5029842;28;20476;-75
2022/12/15 04:15:31;;;;;;;47.00;34.03;;;-2.30;99.90;;;;;;5015320;28;20483;-75
2022/12/15 04:18:01;;;;;;;49.83;36.50;;;-2.40;99.90;;;;;;5014959;28;20493;-78
2022/12/15 04:20:29;;;;;;;48.30;34.40;;;-2.40;99.90;;;;;;5017725;28;20483;-76
2022/12/15 04:22:57;;;;;;;50.00;34.30;;;-2.30;99.90;;;;;;5015728;28;20447;-77
2022/12/15 05:32:12;;;;;;;49.87;34.80;;;-2.20;99.90;;;;;;5027832;28;20959;-79
2022/12/15 05:34:40;;;;;;;50.70;35.27;;;-2.20;99.90;;;;;;5012890;28;20429;-80
2022/12/15 05:37:08;;;;;;;52.00;35.30;;;-2.20;99.90;;;;;;5013156;28;20495;-79
2022/12/15 05:39:36;;;;;;;47.60;35.43;;;-2.30;99.90;;;;;;5012877;28;20494;-78
2022/12/15 05:42:04;;;;;;;48.23;34.47;;;-2.30;99.90;;;;;;5013047;28;20902;-81
2022/12/15 05:44:33;;;;;;;47.90;34.47;;;-2.30;99.90;;;;;;5013238;28;20500;-79
2022/12/15 05:47:01;;;;;;;51.40;35.00;;;-2.30;99.90;;;;;;5013280;28;20466;-79
2022/12/15 05:49:30;;;;;;;49.30;34.80;;;-2.30;99.90;;;;;;5012962;28;20467;-79
2022/12/15 05:51:58;;;;;;;48.17;35.00;;;-2.40;99.90;;;;;;5019307;28;20465;-79
2022/12/15 05:54:27;;;;;;;51.77;35.83;;;-2.40;99.90;;;;;;5014817;28;20460;-76
2022/12/15 05:56:55;;;;;;;45.50;33.93;;;-2.40;99.90;;;;;;5026472;28;20492;-78
2022/12/15 05:59:23;;;;;;;47.13;34.40;;;-2.30;99.90;;;;;;5026257;28;20472;-77
2022/12/15 06:01:51;;;;;;;48.87;35.43;;;-2.30;99.90;;;;;;5021231;28;20475;-78
2022/12/15 06:04:19;;;;;;;49.13;35.33;;;-2.40;99.90;;;;;;5033584;28;20482;-77
2022/12/15 06:06:49;;;;;;;49.40;34.60;;;-2.40;99.90;;;;;;5031987;28;20902;-77
2022/12/15 06:09:20;;;;;;;49.23;34.63;;;-2.40;99.90;;;;;;5013440;28;20474;-77
2022/12/15 06:11:48;;;;;;;48.87;34.77;;;-2.30;99.90;;;;;;5012798;28;20530;-77
2022/12/15 06:14:16;;;;;;;50.83;34.97;;;-2.30;99.90;;;;;;5022480;28;21037;-78
2022/12/15 06:16:44;;;;;;;48.03;35.23;;;-2.30;99.90;;;;;;5032565;28;20452;-75
2022/12/15 06:19:19;;;;;;;47.77;33.63;;;-2.30;99.90;;;;;;5030180;28;20475;-77
2022/12/15 06:21:48;;;;;;;50.30;35.03;;;-2.30;99.90;;;;;;5025206;28;20495;-80
2022/12/15 06:24:16;;;;;;;46.30;34.80;;;-2.30;99.90;;;;;;5012771;28;20460;-78
2022/12/15 06:26:44;;;;;;;52.73;35.63;;;-2.30;99.90;;;;;;5012808;28;20449;-79
2022/12/15 06:29:17;;;;;;;51.13;35.73;;;-2.30;99.90;;;;;;5012136;28;20433;-78
2022/12/15 06:31:45;;;;;;;49.90;36.03;;;-2.30;99.90;;;;;;5013288;28;20468;-78
2022/12/15 06:34:16;;;;;;;50.47;36.63;;;-2.30;99.90;;;;;;5012762;28;20460;-76
2022/12/15 06:36:44;;;;;;;48.17;35.13;;;-2.30;99.90;;;;;;5012890;28;20456;-77
2022/12/15 06:39:16;;;;;;;47.83;34.40;;;-2.20;99.90;;;;;;5012485;28;20524;-79
2022/12/15 06:41:44;;;;;;;50.50;35.90;;;-2.30;99.90;;;;;;5012176;28;20543;-79
2022/12/15 06:44:15;;;;;;;53.73;36.63;;;-2.30;99.90;;;;;;5012461;28;20475;-77
2022/12/15 06:46:44;;;;;;;48.77;34.83;;;-2.30;99.90;;;;;;5012268;28;20455;-77
2022/12/15 06:49:13;;;;;;;49.37;35.40;;;-2.30;99.90;;;;;;5013445;28;20433;-77
2022/12/15 06:51:42;;;;;;;47.57;35.10;;;-2.30;99.90;;;;;;5013016;28;20449;-77
2022/12/15 06:54:11;;;;;;;47.23;34.50;;;-2.30;99.90;;;;;;5012210;28;20555;-76
2022/12/15 06:56:41;;;;;;;49.07;34.87;;;-2.30;99.90;;;;;;5012709;28;20547;-77
2022/12/15 06:59:10;;;;;;;52.00;36.37;;;-2.30;99.90;;;;;;5012220;28;20440;-78
2022/12/15 07:01:40;;;;;;;48.43;35.43;;;-2.30;99.90;;;;;;5012249;28;20484;-78
2022/12/15 07:04:10;;;;;;;48.83;35.70;;;-2.20;99.90;;;;;;5017039;28;20472;-78
2022/12/15 07:06:39;;;;;;;48.77;35.17;;;-2.20;99.90;;;;;;5031254;28;20442;-77
2022/12/15 07:09:11;;;;;;;52.43;36.10;;;-2.20;99.90;;;;;;5031455;28;20439;-76
2022/12/15 07:11:41;;;;;;;46.40;33.57;;;-2.20;99.90;;;;;;5031811;28;20445;-79
2022/12/15 07:14:09;;;;;;;53.30;35.83;;;-2.20;99.90;;;;;;5030196;28;20521;-74
2022/12/15 07:16:38;;;;;;;49.50;35.83;;;-2.20;99.90;;;;;;5043211;28;20486;-77
2022/12/15 07:19:06;;;;;;;50.43;36.47;;;-2.30;99.90;;;;;;5034860;28;20545;-78
2022/12/15 07:21:34;;;;;;;50.87;35.83;;;-2.30;99.90;;;;;;5031264;28;20626;-77
2022/12/15 07:24:02;;;;;;;49.97;35.40;;;-2.30;99.90;;;;;;5031569;28;20524;-77
2022/12/15 07:26:31;;;;;;;50.50;36.57;;;-2.20;99.90;;;;;;5034978;28;20440;-76
2022/12/15 07:29:01;;;;;;;55.00;39.63;;;-2.20;99.90;;;;;;5036997;28;20448;-78
2022/12/15 07:31:30;;;;;;;52.67;37.73;;;-2.20;99.90;;;;;;5035581;28;20451;-78
2022/12/15 07:33:59;;;;;;;56.00;38.57;;;-2.20;99.90;;;;;;5031067;28;20518;-78
2022/12/15 07:36:27;;;;;;;52.07;37.10;;;-2.10;99.90;;;;;;5017564;28;20470;-75
2022/12/15 07:38:59;;;;;;;59.63;38.77;;;-2.10;99.90;;;;;;5027256;28;20448;-75
2022/12/15 07:41:28;;;;;;;56.87;38.40;;;-0.90;99.90;;;;;;5033334;28;20471;-78
2022/12/15 07:43:56;;;;;;;47.97;34.73;;;-1.30;99.90;;;;;;5034705;28;20475;-78
2022/12/15 07:46:27;;;;;;;52.00;35.53;;;-1.50;99.90;;;;;;5034788;28;20458;-77
2022/12/15 07:48:56;;;;;;;49.20;36.53;;;-1.70;99.90;;;;;;5019905;28;20476;-77
2022/12/15 07:51:24;;;;;;;49.93;35.27;;;-1.80;99.90;;;;;;5031685;28;20935;-76
2022/12/15 07:53:52;;;;;;;49.53;35.33;;;-1.90;99.90;;;;;;5034178;28;20623;-78
2022/12/15 07:56:21;;;;;;;53.67;37.73;;;-1.90;99.90;;;;;;5035232;28;20450;-79
2022/12/15 07:58:49;;;;;;;53.60;37.20;;;-1.90;99.90;;;;;;5034094;28;20466;-75
2022/12/15 08:01:17;;;;;;;50.13;36.90;;;-2.10;99.90;;;;;;5032566;28;20871;-78
2022/12/15 08:03:48;;;;;;;49.97;35.77;;;-2.00;99.90;;;;;;5033725;28;20448;-76
2022/12/15 08:06:17;;;;;;;51.20;36.10;;;-1.90;99.90;;;;;;5015348;28;20459;-77
2022/12/15 08:08:46;;;;;;;48.57;34.93;;;-1.80;99.90;;;;;;5027799;28;20540;-76
2022/12/15 08:11:18;;;;;;;46.37;33.70;;;-1.80;99.90;;;;;;5031228;28;20462;-76
2022/12/15 08:13:47;;;;;;;43.37;32.57;;;-1.70;99.90;;;;;;5021299;28;20451;-76
2022/12/15 08:16:35;;;;;;;40.17;31.90;;;-1.60;99.90;;;;;;5034512;28;20452;-75
2022/12/15 08:19:05;;;;;;;40.70;31.03;;;-1.40;99.90;;;;;;5023027;28;20268;-76
2022/12/15 08:21:34;;;;;;;41.93;31.50;;;-1.30;99.90;;;;;;5016299;28;20460;-76
2022/12/15 08:24:07;;;;;;;43.50;31.37;;;-1.20;99.90;;;;;;5019992;28;20941;-77
2022/12/15 08:26:37;;;;;;;43.43;31.67;;;-1.40;99.90;;;;;;5038123;28;20555;-77
2022/12/15 08:29:07;;;;;;;42.50;33.80;;;-1.30;99.90;;;;;;5034934;28;20452;-75
2022/12/15 08:31:55;;;;;;;43.73;32.37;;;-1.10;99.90;;;;;;5033678;28;20467;-74
2022/12/15 08:34:25;;;;;;;39.67;30.87;;;-1.10;99.90;;;;;;5028368;28;20269;-76
2022/12/15 08:36:54;;;;;;;42.23;30.53;;;-1.00;99.90;;;;;;5026051;28;20207;-77
2022/12/15 08:39:22;;;;;;;43.53;31.13;;;-0.90;99.90;;;;;;5034716;28;20444;-79
2022/12/15 08:41:50;;;;;;;39.40;29.77;;;-0.60;99.90;;;;;;5033188;28;20221;-77
2022/12/15 08:44:18;;;;;;;37.23;27.93;;;-0.50;99.90;;;;;;5033946;28;20243;-79
2022/12/15 08:46:47;;;;;;;36.77;29.00;;;-0.20;99.90;;;;;;5018067;28;20687;-73
2022/12/15 08:49:15;;;;;;;35.97;27.33;;;0.10;99.90;;;;;;5032417;28;20208;-73
2022/12/15 08:51:51;;;;;;;34.57;26.70;;;0.00;99.90;;;;;;5033036;28;20708;-77
2022/12/15 08:54:20;;;;;;;36.70;28.60;;;0.00;99.90;;;;;;5021447;28;20681;-77
2022/12/15 08:56:51;;;;;;;35.73;28.27;;;0.00;99.90;;;;;;5028950;28;20213;-78
2022/12/15 08:59:19;;;;;;;38.20;29.50;;;-0.20;99.90;;;;;;5015228;28;20624;-74
2022/12/15 09:01:47;;;;;;;35.10;27.77;;;0.00;99.90;;;;;;5026420;28;20372;-76
2022/12/15 09:04:16;;;;;;;38.30;28.10;;;0.20;99.90;;;;;;5035414;28;20224;-77
2022/12/15 09:06:45;;;;;;;37.67;28.63;;;0.20;99.90;;;;;;5035095;28;20212;-76
2022/12/15 09:09:19;;;;;;;37.63;28.80;;;0.40;99.90;;;;;;5035512;28;20213;-77
2022/12/15 09:11:48;;;;;;;37.67;28.77;;;0.00;99.90;;;;;;5034393;28;20291;-76
2022/12/15 09:14:16;;;;;;;37.53;29.10;;;-0.20;99.90;;;;;;5026652;28;20227;-73
2022/12/15 09:16:44;;;;;;;36.13;28.47;;;-0.20;99.90;;;;;;5018290;28;20215;-77
2022/12/15 09:19:18;;;;;;;39.37;30.43;;;-0.20;99.90;;;;;;5027635;28;20216;-77
2022/12/15 09:21:47;;;;;;;41.37;30.13;;;-0.40;99.90;;;;;;5026208;28;20233;-75
2022/12/15 09:24:15;;;;;;;36.97;28.43;;;-0.20;99.90;;;;;;5026275;28;20722;-76
2022/12/15 09:26:57;;;;;;;37.97;28.00;;;-0.20;99.90;;;;;;5027889;28;20224;-73
2022/12/15 09:29:25;;;;;;;36.13;27.47;;;-0.40;99.90;;;;;;5013954;28;20213;-73
2022/12/15 09:31:54;;;;;;;38.43;28.40;;;-0.30;99.90;;;;;;5024231;28;20213;-76
2022/12/15 09:34:22;;;;;;;33.53;26.67;;;-0.30;99.90;;;;;;5032790;28;20236;-79
2022/12/15 09:36:50;;;;;;;38.00;27.93;;;-0.10;99.90;;;;;;5032938;28;20216;-77
2022/12/15 09:39:18;;;;;;;33.87;26.40;;;-0.10;99.90;;;;;;5031370;28;20205;-77
2022/12/15 09:41:53;;;;;;;36.57;27.40;;;-0.20;99.90;;;;;;5027392;28;20293;-78
2022/12/15 09:44:26;;;;;;;38.07;28.67;;;-0.30;99.90;;;;;;5022527;28;20231;-77
2022/12/15 09:47:16;;;;;;;37.23;29.40;;;0.00;99.90;;;;;;4985054;28;1312189;-77
2022/12/15 09:49:53;;;;;;;37.70;28.73;;;0.10;99.90;;;;;;5028474;28;20216;-78
2022/12/15 09:52:25;;;;;;;36.37;28.33;;;0.20;99.90;;;;;;5033980;28;20204;-75
2022/12/15 09:54:54;;;;;;;37.90;30.07;;;0.30;99.90;;;;;;5026266;28;20198;-74
2022/12/15 09:57:37;;;;;;;40.53;29.13;;;0.30;99.90;;;;;;5028631;28;20224;-76
2022/12/15 10:00:15;;;;;;;38.87;29.60;;;0.00;99.90;;;;;;5032728;28;20205;-77
2022/12/15 10:03:16;;;;;;;40.07;29.80;;;0.00;99.90;;;;;;5023314;28;20227;-76
2022/12/15 10:05:54;;;;;;;39.20;29.53;;;0.10;99.90;;;;;;5013914;28;20209;-76
2022/12/15 10:08:46;;;;;;;38.37;29.03;;;0.10;99.90;;;;;;5013709;28;20219;-76
2022/12/15 10:11:24;;;;;;;41.50;30.47;;;0.00;99.90;;;;;;5022773;28;20216;-76
2022/12/15 10:13:57;;;;;;;40.13;30.47;;;0.10;99.90;;;;;;5018244;28;20223;-74
2022/12/15 10:16:32;;;;;;;39.47;30.00;;;-0.10;99.90;;;;;;5032974;28;20223;-78
2022/12/15 10:19:08;;;;;;;38.63;29.73;;;-0.10;99.90;;;;;;5019212;28;20632;-77
2022/12/15 10:21:37;;;;;;;42.10;31.07;;;0.00;99.90;;;;;;5014929;28;20220;-76
2022/12/15 10:24:19;;;;;;;39.67;30.07;;;0.10;99.90;;;;;;5014046;28;20588;-73
2022/12/15 10:27:20;;;;;;;41.17;30.03;;;0.10;99.90;;;;;;5013369;28;20217;-76
2022/12/15 10:29:56;;;;;;;39.60;30.50;;;0.00;99.90;;;;;;5012436;28;20215;-75
2022/12/15 10:32:38;;;;;;;42.13;31.17;;;-0.10;99.90;;;;;;5023888;28;20208;-72
2022/12/15 10:35:16;;;;;;;44.33;31.10;;;-0.20;99.90;;;;;;5037177;28;20236;-74
2022/12/15 10:37:44;;;;;;;41.37;31.13;;;-0.10;99.90;;;;;;5016839;28;20239;-76
2022/12/15 10:40:19;;;;;;;43.37;32.60;;;0.00;99.90;;;;;;5014694;28;20212;-75
2022/12/15 10:42:49;;;;;;;44.63;32.47;;;-0.10;99.90;;;;;;5027204;28;20232;-76
2022/12/15 10:45:34;;;;;;;43.43;32.80;;;-0.30;99.90;;;;;;5031731;28;20712;-79
2022/12/15 10:48:05;;;;;;;45.20;33.40;;;-0.20;99.90;;;;;;5025148;28;20222;-73
2022/12/15 10:50:34;;;;;;;45.73;32.77;;;-0.30;99.90;;;;;;5033092;28;20576;-75
2022/12/15 10:53:08;;;;;;;45.70;32.67;;;-0.20;99.90;;;;;;5026648;28;20531;-75
2022/12/15 10:55:39;;;;;;;45.07;33.03;;;-0.30;99.90;;;;;;5032389;28;20203;-74
2022/12/15 10:58:17;;;;;;;42.90;31.67;;;-0.20;99.90;;;;;;5031089;28;20312;-76
2022/12/15 11:00:46;;;;;;;42.63;32.27;;;-0.30;99.90;;;;;;5020522;28;20292;-73
2022/12/15 11:03:38;;;;;;;48.57;34.00;;;-0.20;99.90;;;;;;5015274;28;20256;-77
2022/12/15 11:06:15;;;;;;;45.13;32.27;;;-0.20;99.90;;;;;;5015332;28;20209;-76
2022/12/15 11:08:44;;;;;;;44.90;33.37;;;-0.30;99.90;;;;;;5024759;28;21259;-75
2022/12/15 11:14:14;;;;;;;41.10;30.40;;;0.00;99.90;;;;;;5031583;28;20206;-75
2022/12/15 11:16:48;;;;;;;40.10;31.33;;;0.20;99.90;;;;;;5029921;28;20210;-77
2022/12/15 11:19:28;;;;;;;43.17;31.73;;;0.10;99.90;;;;;;5015812;28;20220;-76
2022/12/15 11:22:01;;;;;;;41.77;30.87;;;0.00;99.90;;;;;;5040611;28;20192;-76
2022/12/15 11:24:36;;;;;;;44.37;33.27;;;0.20;99.90;;;;;;5033474;28;20213;-79
2022/12/15 11:27:12;;;;;;;42.27;32.63;;;0.10;99.90;;;;;;5029697;28;20219;-77
2022/12/15 11:29:56;;;;;;;43.87;32.33;;;0.20;99.90;;;;;;5035321;28;20204;-74
2022/12/15 11:32:27;;;;;;;43.37;31.67;;;0.30;99.90;;;;;;5031407;28;20288;-79
2022/12/15 11:34:57;;;;;;;44.40;33.23;;;0.20;99.90;;;;;;5032416;28;20205;-78
2022/12/15 11:37:37;;;;;;;44.87;32.97;;;0.30;99.90;;;;;;5034514;28;20671;-79
2022/12/15 11:40:27;;;;;;;41.27;31.90;;;0.40;99.90;;;;;;5034572;28;20209;-78
2022/12/15 11:43:05;;;;;;;45.23;33.80;;;0.30;99.90;;;;;;5029346;28;20789;-75
2022/12/15 11:45:41;;;;;;;46.60;34.07;;;0.00;99.90;;;;;;5033206;28;20212;-76
2022/12/15 11:48:16;;;;;;;49.10;35.47;;;-0.10;99.90;;;;;;5034601;28;20661;-76
2022/12/15 11:50:53;;;;;;;43.03;33.17;;;0.20;99.90;;;;;;5034092;28;20243;-77
2022/12/15 11:53:53;;;;;;;45.97;34.67;;;0.20;99.90;;;;;;5033476;28;20562;-78
2022/12/15 11:56:29;;;;;;;45.50;34.13;;;0.10;99.90;;;;;;5018466;28;20207;-76
2022/12/15 11:59:27;;;;;;;50.20;35.10;;;-0.10;99.90;;;;;;5031331;28;20196;-75
2022/12/15 12:02:13;;;;;;;44.90;34.07;;;-0.20;99.90;;;;;;4995363;28;20211;-77
2022/12/15 12:04:51;;;;;;;45.67;33.57;;;-0.10;99.90;;;;;;5024790;28;20225;-77
2022/12/15 12:07:29;;;;;;;46.37;34.17;;;-0.10;99.90;;;;;;5015495;28;20210;-76
2022/12/15 12:10:08;;;;;;;43.07;34.00;;;0.10;99.90;;;;;;5027705;28;20742;-78
2022/12/15 12:12:44;;;;;;;44.83;32.90;;;0.20;99.90;;;;;;5031126;28;20215;-79
2022/12/15 12:15:23;;;;;;;50.43;34.93;;;0.00;99.90;;;;;;5027656;28;20231;-77
2022/12/15 12:17:55;;;;;;;48.93;35.23;;;-0.10;99.90;;;;;;5030862;28;20296;-75
2022/12/15 12:20:28;;;;;;;44.97;34.27;;;0.00;99.90;;;;;;5024720;28;20198;-76
2022/12/15 12:23:04;;;;;;;46.67;33.97;;;-0.10;99.90;;;;;;5018240;28;20308;-77
2022/12/15 12:25:39;;;;;;;47.50;34.80;;;-0.10;99.90;;;;;;5015415;28;20209;-78
2022/12/15 12:28:16;;;;;;;47.47;35.23;;;-0.10;99.90;;;;;;5014870;28;20666;-75
2022/12/15 12:30:47;;;;;;;46.03;34.20;;;-0.20;99.90;;;;;;5014494;28;20205;-74
2022/12/15 12:33:30;;;;;;;49.57;35.93;;;-0.10;99.90;;;;;;5030160;28;20209;-78
2022/12/15 12:36:04;;;;;;;46.47;35.23;;;-0.10;99.90;;;;;;5033843;28;20197;-76
2022/12/15 12:38:45;;;;;;;48.33;35.20;;;-0.20;99.90;;;;;;5032764;28;20200;-77
2022/12/15 12:41:23;;;;;;;47.07;35.00;;;-0.30;99.90;;;;;;5031804;28;20231;-79
2022/12/15 12:43:54;;;;;;;48.87;35.90;;;-0.40;99.90;;;;;;5014977;28;20229;-77
2022/12/15 12:46:27;;;;;;;48.30;35.33;;;-0.40;99.90;;;;;;5016730;28;20560;-76
2022/12/15 12:48:59;;;;;;;50.20;36.10;;;-0.40;99.90;;;;;;5034062;28;20672;-74
2022/12/15 12:51:30;;;;;;;48.87;34.90;;;-0.30;99.90;;;;;;5035170;28;20215;-78
2022/12/15 12:54:00;;;;;;;49.53;35.97;;;-0.40;99.90;;;;;;5035518;28;20209;-74
2022/12/15 12:56:48;;;;;;;46.27;34.60;;;-0.40;99.90;;;;;;5038655;28;20527;-74
2022/12/15 12:59:38;;;;;;;46.97;35.57;;;-0.30;99.90;;;;;;5027459;28;20626;-76
2022/12/15 13:02:43;;;;;;;48.50;35.40;;;-0.30;99.90;;;;;;5015551;28;20194;-78
2022/12/15 13:05:27;;;;;;;52.13;36.23;;;-0.40;99.90;;;;;;5026757;28;20590;-72
2022/12/15 13:07:57;;;;;;;48.50;34.93;;;-0.40;99.90;;;;;;5028908;28;20452;-74
2022/12/15 13:10:26;;;;;;;49.47;34.80;;;-0.40;99.90;;;;;;5031440;28;20450;-74
2022/12/15 13:12:57;;;;;;;53.20;37.00;;;-0.50;99.90;;;;;;5034496;28;20215;-74
2022/12/15 13:15:46;;;;;;;51.80;36.30;;;-0.50;99.90;;;;;;5036294;28;21017;-75
2022/12/15 13:18:21;;;;;;;48.97;34.93;;;-0.50;99.90;;;;;;5038539;28;20459;-73
2022/12/15 13:20:50;;;;;;;55.50;39.07;;;-0.40;99.90;;;;;;5036680;28;20434;-76
2022/12/15 13:23:41;;;;;;;47.20;34.57;;;0.20;99.90;;;;;;5030383;28;20209;-78
2022/12/15 13:26:19;;;;;;;47.43;34.60;;;-0.10;99.90;;;;;;5030469;28;20217;-76
2022/12/15 13:28:56;;;;;;;46.60;34.10;;;-0.10;99.90;;;;;;5031538;28;20667;-77
2022/12/15 13:31:42;;;;;;;45.60;34.27;;;-0.20;99.90;;;;;;5032732;28;20201;-78
2022/12/15 13:34:20;;;;;;;49.13;35.37;;;-0.40;99.90;;;;;;5017245;28;20252;-76
2022/12/15 13:37:02;;;;;;;52.20;36.63;;;-0.50;99.90;;;;;;5012847;28;20211;-77
2022/12/15 13:39:59;;;;;;;49.13;35.27;;;-0.50;99.90;;;;;;5015115;28;20212;-78
2022/12/15 13:42:34;;;;;;;48.90;34.53;;;-0.50;99.90;;;;;;5021732;28;20210;-75
2022/12/15 13:45:57;;;;;;;50.20;35.97;;;-0.60;99.90;;;;;;5012831;28;20473;-77
2022/12/15 13:48:34;;;;;;;53.80;37.17;;;-0.50;99.90;;;;;;5013396;28;20256;-75
2022/12/15 13:51:19;;;;;;;51.20;35.20;;;-0.50;99.90;;;;;;5014023;28;20449;-76
2022/12/15 13:53:49;;;;;;;53.60;37.43;;;-0.50;99.90;;;;;;5028445;28;20439;-72
2022/12/15 13:56:49;;;;;;;52.47;37.27;;;-0.60;99.90;;;;;;5031660;28;20292;-78
2022/12/15 13:59:29;;;;;;;49.97;36.43;;;-0.60;99.90;;;;;;5013770;28;20452;-77
2022/12/15 14:01:57;;;;;;;52.77;36.57;;;-0.70;99.90;;;;;;5012994;28;20436;-76
2022/12/15 14:04:26;;;;;;;58.20;38.47;;;-0.80;99.90;;;;;;5012422;28;20237;-78
2022/12/15 14:06:56;;;;;;;54.87;39.30;;;-0.80;99.90;;;;;;5031036;28;20567;-77
2022/12/15 14:09:29;;;;;;;52.57;38.30;;;-0.90;99.90;;;;;;5032652;28;20205;-77
2022/12/15 14:11:58;;;;;;;56.07;38.73;;;-0.70;99.90;;;;;;5020821;28;20440;-76
2022/12/15 14:14:33;;;;;;;54.00;37.77;;;-0.70;99.90;;;;;;5024884;28;20464;-76
2022/12/15 14:17:03;;;;;;;51.63;36.97;;;-0.70;99.90;;;;;;5031198;28;20451;-76
2022/12/15 14:19:40;;;;;;;53.80;38.37;;;-0.60;99.90;;;;;;5030531;28;20557;-77
2022/12/15 14:22:21;;;;;;;52.93;37.70;;;-0.60;99.90;;;;;;5030465;28;20451;-77
2022/12/15 14:25:00;;;;;;;53.60;37.50;;;-0.70;99.90;;;;;;5028958;28;20659;-76
2022/12/15 14:27:31;;;;;;;51.73;37.10;;;-0.70;99.90;;;;;;5032797;28;20534;-77
2022/12/15 14:30:25;;;;;;;54.43;37.10;;;-0.60;99.90;;;;;;5033621;28;20455;-74
2022/12/15 14:32:57;;;;;;;55.87;38.30;;;-0.60;99.90;;;;;;5032557;28;20478;-74
2022/12/15 14:35:30;;;;;;;51.17;36.67;;;-0.70;99.90;;;;;;5032972;28;20428;-74
2022/12/15 14:38:01;;;;;;;51.33;38.03;;;-0.60;99.90;;;;;;5032652;28;20440;-77
2022/12/15 14:40:31;;;;;;;49.77;36.03;;;-0.60;99.90;;;;;;5032614;28;20471;-76
2022/12/15 14:42:59;;;;;;;55.17;37.23;;;-0.50;99.90;;;;;;5033413;28;20219;-76
2022/12/15 14:45:32;;;;;;;54.60;38.07;;;-0.60;99.90;;;;;;5032847;28;20498;-77
2022/12/15 14:48:09;;;;;;;54.53;37.53;;;-0.60;99.90;;;;;;5032048;28;20216;-78
2022/12/15 14:51:00;;;;;;;54.80;38.63;;;-0.60;99.90;;;;;;5029798;28;20213;-79
2022/12/15 14:53:33;;;;;;;58.43;38.30;;;-0.50;99.90;;;;;;5031238;28;20463;-78
2022/12/15 14:56:14;;;;;;;59.63;40.40;;;-0.60;99.90;;;;;;5031866;28;20432;-77
2022/12/15 14:58:43;;;;;;;60.63;40.57;;;-0.60;99.90;;;;;;5017468;28;20463;-76
2022/12/15 15:01:25;;;;;;;55.17;38.40;;;-0.60;99.90;;;;;;5009699;28;20449;-76
2022/12/15 15:04:00;;;;;;;53.37;36.87;;;-0.60;99.90;;;;;;5011915;28;20443;-78
2022/12/15 15:06:32;;;;;;;51.90;37.03;;;-0.70;99.90;;;;;;5018640;28;20311;-77
2022/12/15 15:09:14;;;;;;;56.90;38.33;;;-0.70;99.90;;;;;;5031623;28;20243;-77
2022/12/15 15:11:43;;;;;;;61.73;39.70;;;-0.80;99.90;;;;;;5031690;28;20666;-77
2022/12/15 15:14:16;;;;;;;53.43;38.63;;;-0.80;99.90;;;;;;5031918;28;20691;-75
2022/12/15 15:16:58;;;;;;;58.40;39.13;;;-0.80;99.90;;;;;;5020397;28;20915;-75
2022/12/15 15:19:26;;;;;;;58.10;39.00;;;-0.90;99.90;;;;;;5012837;28;20429;-76
2022/12/15 15:21:55;;;;;;;65.07;45.27;;;-0.90;99.90;;;;;;5012320;28;20472;-76